Time;durP1;ratioP1;P1;durP2;ratioP2;P2;SDS_P1;SDS_P2;PMS_P1;PMS_P2;Temp;Humidity;BMP_temperature;BMP_pressure;BME280_temperature;BME280_humidity;BME280_pressure;Samples;Min_cycle;Max_cycle;Signal;HPM_P1;HPM_P2
2022/10/23 00:01:12;;;;;;;32.55;20.58;;;12.60;99.90;;;;;;5013738;28;92505;-79
2022/10/23 00:03:39;;;;;;;34.05;20.83;;;12.70;99.90;;;;;;5015226;28;93226;-79
2022/10/23 00:06:07;;;;;;;34.60;21.20;;;12.60;99.90;;;;;;5013638;28;95578;-79
2022/10/23 00:08:34;;;;;;;34.10;20.23;;;12.60;99.90;;;;;;5013503;28;92553;-79
2022/10/23 00:11:05;;;;;;;29.90;19.35;;;12.60;99.90;;;;;;5014044;28;92458;-79
2022/10/23 00:13:32;;;;;;;33.95;19.70;;;12.70;99.90;;;;;;5030482;28;93335;-79
2022/10/23 00:15:59;;;;;;;32.35;19.23;;;12.60;99.90;;;;;;5013809;28;95750;-79
2022/10/23 00:18:26;;;;;;;31.55;18.83;;;12.60;99.90;;;;;;4996992;28;92477;-79
2022/10/23 00:20:53;;;;;;;32.22;19.42;;;12.60;99.90;;;;;;5013466;28;92460;-79
2022/10/23 00:23:20;;;;;;;32.28;20.83;;;12.60;99.90;;;;;;4995439;28;97994;-79
2022/10/23 00:25:47;;;;;;;30.15;20.45;;;12.60;99.90;;;;;;5014073;28;96319;-79
2022/10/23 00:28:14;;;;;;;35.88;19.88;;;12.60;99.90;;;;;;4997059;28;92617;-79
2022/10/23 00:30:41;;;;;;;37.35;20.15;;;12.60;99.90;;;;;;5016152;28;92469;-79
2022/10/23 00:33:09;;;;;;;31.80;19.00;;;12.60;99.90;;;;;;5018462;28;93278;-79
2022/10/23 00:35:42;;;;;;;28.15;18.60;;;12.60;99.90;;;;;;5016842;28;96033;-79
2022/10/23 00:38:10;;;;;;;;;;;12.60;99.90;;;;;;5018379;28;92436;-79
2022/10/23 00:40:37;;;;;;;32.30;18.25;;;12.50;99.90;;;;;;5035697;28;91845;-79
2022/10/23 00:43:06;;;;;;;29.25;19.58;;;12.40;99.90;;;;;;5016730;28;93423;-79
2022/10/23 00:45:33;;;;;;;32.85;19.75;;;12.50;99.90;;;;;;5016341;28;95759;-79
2022/10/23 00:48:01;;;;;;;29.52;19.25;;;12.50;99.90;;;;;;5015692;28;95480;-79
2022/10/23 00:50:31;;;;;;;28.42;19.33;;;12.50;99.90;;;;;;5017880;28;92427;-79
2022/10/23 00:53:03;;;;;;;31.80;20.02;;;12.50;99.90;;;;;;5016678;28;93044;-79
2022/10/23 00:55:32;;;;;;;30.42;20.25;;;12.50;99.90;;;;;;5016381;28;95491;-79
2022/10/23 00:57:59;;;;;;;31.17;20.35;;;12.50;99.90;;;;;;5016405;28;92568;-79
2022/10/23 01:00:30;;;;;;;30.52;19.83;;;12.50;99.90;;;;;;5018048;28;92434;-79
2022/10/23 01:02:58;;;;;;;33.00;19.73;;;12.50;99.90;;;;;;5017920;28;93524;-79
2022/10/23 01:05:34;;;;;;;28.33;19.05;;;12.50;99.90;;;;;;5016950;28;95018;-79
2022/10/23 01:08:19;;;;;;;31.02;18.33;;;12.50;99.90;;;;;;5017972;28;92486;-79
2022/10/23 01:10:55;;;;;;;27.92;17.88;;;12.50;99.90;;;;;;5016438;28;93012;-79
2022/10/23 01:13:38;;;;;;;35.22;19.88;;;12.50;99.90;;;;;;5016464;28;95846;-79
2022/10/23 01:16:30;;;;;;;28.13;18.02;;;12.50;99.90;;;;;;5016181;28;96492;-79
2022/10/23 01:19:00;;;;;;;26.63;17.85;;;12.40;99.90;;;;;;5008941;28;92612;-78
2022/10/23 01:21:42;;;;;;;34.05;18.70;;;12.40;99.90;;;;;;5016361;28;92444;-79
2022/10/23 01:24:29;;;;;;;34.28;19.08;;;12.40;99.90;;;;;;5016100;28;96292;-79
2022/10/23 01:27:09;;;;;;;32.17;18.48;;;12.30;99.90;;;;;;5015326;28;95590;-78
2022/10/23 01:29:42;;;;;;;33.28;18.95;;;12.30;99.90;;;;;;5016098;28;92396;-78
2022/10/23 01:32:20;;;;;;;30.67;18.40;;;12.30;99.90;;;;;;5016543;28;91860;-78
2022/10/23 01:35:15;;;;;;;25.33;17.33;;;12.30;99.90;;;;;;5015994;28;95567;-79
2022/10/23 01:37:46;;;;;;;25.25;17.63;;;12.30;99.90;;;;;;5015657;28;95847;-78
2022/10/23 01:40:29;;;;;;;26.17;17.45;;;12.20;99.90;;;;;;5014854;28;94890;-78
2022/10/23 01:43:19;;;;;;;29.05;17.98;;;12.30;99.90;;;;;;5015667;28;92452;-78
2022/10/23 01:45:59;;;;;;;32.17;17.70;;;12.20;99.90;;;;;;5016605;28;94806;-79
2022/10/23 01:48:28;;;;;;;30.05;16.77;;;12.20;99.90;;;;;;5015727;28;94121;-79
2022/10/23 01:51:02;;;;;;;27.55;17.65;;;12.20;99.90;;;;;;5015580;28;92501;-79
2022/10/23 01:53:33;;;;;;;26.17;16.00;;;12.20;99.90;;;;;;5015769;28;92481;-79
2022/10/23 01:56:05;;;;;;;29.55;18.27;;;12.20;99.90;;;;;;4998687;28;95684;-79
2022/10/23 01:58:34;;;;;;;25.30;17.35;;;12.20;99.90;;;;;;5032796;28;95735;-78
2022/10/23 02:01:05;;;;;;;23.33;16.88;;;12.20;99.90;;;;;;5015810;28;92533;-79
2022/10/23 02:03:43;;;;;;;29.50;18.00;;;12.20;99.90;;;;;;5000057;28;92556;-79
2022/10/23 02:06:10;;;;;;;26.15;17.80;;;12.30;99.90;;;;;;5014432;28;97237;-79
2022/10/23 02:08:38;;;;;;;27.27;17.42;;;12.40;99.90;;;;;;5014966;28;97700;-79
2022/10/23 02:11:11;;;;;;;30.00;19.00;;;12.40;99.90;;;;;;5015655;28;92471;-79
2022/10/23 02:14:06;;;;;;;24.02;16.27;;;12.50;99.90;;;;;;5032185;28;92542;-79
2022/10/23 02:16:39;;;;;;;29.23;17.83;;;12.60;99.90;;;;;;4998930;28;95779;-79
2022/10/23 02:19:32;;;;;;;25.73;16.13;;;12.60;99.90;;;;;;5015375;28;94574;-78
2022/10/23 02:22:19;;;;;;;22.45;15.43;;;12.80;99.90;;;;;;5015371;28;92396;-79
2022/10/23 02:25:10;;;;;;;20.83;15.38;;;12.80;99.90;;;;;;5017248;28;91702;-79
2022/10/23 02:27:45;;;;;;;21.05;15.60;;;12.90;99.90;;;;;;5014981;28;95729;-79
2022/10/23 02:30:15;;;;;;;25.03;16.63;;;12.90;99.90;;;;;;5016889;28;93075;-79
2022/10/23 02:32:49;;;;;;;25.05;16.92;;;12.90;99.90;;;;;;5030695;28;95007;-79
2022/10/23 02:35:21;;;;;;;24.73;15.50;;;13.00;99.90;;;;;;5015207;28;92474;-79
2022/10/23 02:37:56;;;;;;;26.30;16.58;;;13.10;99.90;;;;;;5014996;28;94316;-79
2022/10/23 02:40:37;;;;;;;28.00;16.10;;;13.10;99.90;;;;;;5031600;28;93050;-78
2022/10/23 02:43:13;;;;;;;23.70;15.43;;;13.20;99.90;;;;;;4998912;28;92501;-78
2022/10/23 02:46:07;;;;;;;22.85;16.13;;;13.20;99.90;;;;;;5015464;28;93048;-79
2022/10/23 02:48:47;;;;;;;20.92;15.73;;;13.20;99.90;;;;;;5001264;28;95832;-79
2022/10/23 02:51:19;;;;;;;21.85;15.52;;;13.30;99.90;;;;;;5015551;28;95359;-79
2022/10/23 02:54:14;;;;;;;24.98;16.40;;;13.30;99.90;;;;;;4997282;28;92459;-78
2022/10/23 02:57:13;;;;;;;25.65;16.23;;;13.30;99.90;;;;;;5014651;28;92517;-79
2022/10/23 02:59:56;;;;;;;21.27;14.52;;;13.20;99.90;;;;;;5005906;28;95647;-79
2022/10/23 03:02:31;;;;;;;25.15;17.38;;;13.20;99.90;;;;;;5014756;28;97763;-79
2022/10/23 03:05:00;;;;;;;25.23;16.73;;;13.20;99.90;;;;;;5014643;28;92502;-78
2022/10/23 03:07:27;;;;;;;22.00;15.32;;;13.20;99.90;;;;;;4998268;28;92546;-78
2022/10/23 03:10:01;;;;;;;25.92;16.73;;;13.20;99.90;;;;;;4998867;28;95632;-78
2022/10/23 03:12:30;;;;;;;23.27;16.30;;;13.10;99.90;;;;;;5014701;28;94137;-79
2022/10/23 03:14:58;;;;;;;20.95;14.90;;;13.10;99.90;;;;;;5031510;28;92340;-79
2022/10/23 03:17:25;;;;;;;21.83;15.63;;;13.00;99.90;;;;;;5014869;28;91762;-79
2022/10/23 03:19:55;;;;;;;25.75;16.40;;;13.00;99.90;;;;;;4998546;28;95100;-79
2022/10/23 03:22:22;;;;;;;27.38;16.30;;;13.00;99.90;;;;;;5014287;28;95720;-79
2022/10/23 03:24:49;;;;;;;26.80;15.88;;;13.00;99.90;;;;;;5013429;28;94917;-79
2022/10/23 03:27:16;;;;;;;20.02;13.93;;;13.00;99.90;;;;;;5014487;28;92609;-79
2022/10/23 03:29:43;;;;;;;25.75;16.40;;;12.90;99.90;;;;;;5014419;28;93225;-79
2022/10/23 03:32:10;;;;;;;23.80;16.23;;;12.90;99.90;;;;;;5013924;28;95634;-78
2022/10/23 03:34:37;;;;;;;25.92;16.48;;;12.90;99.90;;;;;;5014283;28;92455;-79
2022/10/23 03:37:06;;;;;;;21.48;14.75;;;12.80;99.90;;;;;;5031195;28;93405;-79
2022/10/23 03:39:33;;;;;;;25.67;15.88;;;12.80;99.90;;;;;;4997490;28;95592;-79
2022/10/23 03:42:00;;;;;;;24.98;15.82;;;12.80;99.90;;;;;;5014275;28;95816;-79
2022/10/23 03:44:29;;;;;;;31.27;17.17;;;12.70;99.90;;;;;;4997618;28;92466;-79
2022/10/23 03:46:57;;;;;;;29.00;18.23;;;12.70;99.90;;;;;;5013967;28;92492;-79
2022/10/23 03:49:25;;;;;;;27.92;18.40;;;12.60;99.90;;;;;;5012513;28;96817;-79
2022/10/23 03:51:52;;;;;;;23.35;16.05;;;12.60;99.90;;;;;;5013509;28;97940;-79
2022/10/23 03:54:25;;;;;;;26.05;17.38;;;12.60;99.90;;;;;;5014002;28;92556;-79
2022/10/23 03:56:53;;;;;;;28.70;17.88;;;12.60;99.90;;;;;;5013790;28;92425;-79
2022/10/23 03:59:20;;;;;;;29.42;18.33;;;12.60;99.90;;;;;;5013717;28;96411;-79
2022/10/23 04:01:48;;;;;;;25.20;17.40;;;12.50;99.90;;;;;;5013650;28;95662;-79
2022/10/23 04:04:15;;;;;;;25.98;17.33;;;12.50;99.90;;;;;;5013317;28;100919;-79
2022/10/23 04:06:43;;;;;;;30.23;18.13;;;12.50;99.90;;;;;;5014276;28;91842;-79
2022/10/23 04:09:10;;;;;;;28.40;18.65;;;12.50;99.90;;;;;;5013558;28;95914;-78
2022/10/23 04:11:42;;;;;;;30.35;18.20;;;12.40;99.90;;;;;;5013500;28;95469;-78
2022/10/23 04:14:12;;;;;;;30.52;18.73;;;12.40;99.90;;;;;;5012506;28;94889;-78
2022/10/23 04:16:39;;;;;;;24.80;17.73;;;12.40;99.90;;;;;;5030789;28;93049;-79
2022/10/23 04:19:06;;;;;;;26.42;16.63;;;12.40;99.90;;;;;;5013560;28;94232;-79
2022/10/23 04:21:33;;;;;;;29.63;17.92;;;12.30;99.90;;;;;;4996948;28;95689;-79
2022/10/23 04:24:00;;;;;;;25.95;16.40;;;12.30;99.90;;;;;;5013205;28;92520;-79
2022/10/23 04:26:27;;;;;;;25.70;17.48;;;12.30;99.90;;;;;;5013240;28;93109;-79
2022/10/23 04:28:54;;;;;;;25.98;17.10;;;12.30;99.90;;;;;;5013097;28;96233;-79
2022/10/23 04:31:21;;;;;;;28.48;19.10;;;12.30;99.90;;;;;;5013916;28;93085;-78
2022/10/23 04:33:48;;;;;;;27.00;18.58;;;12.30;99.90;;;;;;5013546;28;92382;-79
2022/10/23 04:36:27;;;;;;;28.30;19.65;;;12.30;99.90;;;;;;5013349;28;92562;-78
2022/10/23 04:38:57;;;;;;;25.40;17.90;;;12.20;99.90;;;;;;4995524;28;97978;-79
2022/10/23 04:41:24;;;;;;;26.27;17.98;;;12.20;99.90;;;;;;4996679;28;96766;-79
2022/10/23 04:43:51;;;;;;;26.27;16.98;;;12.20;99.90;;;;;;4996772;28;92504;-79
2022/10/23 04:46:18;;;;;;;27.42;18.13;;;12.20;99.90;;;;;;5013498;28;92692;-79
2022/10/23 04:48:47;;;;;;;23.63;17.02;;;12.20;99.90;;;;;;5012990;28;95800;-79
2022/10/23 04:51:28;;;;;;;27.52;18.50;;;12.20;99.90;;;;;;5015090;28;94388;-79
2022/10/23 04:54:01;;;;;;;28.45;18.38;;;12.10;99.90;;;;;;5013051;28;93016;-79
2022/10/23 04:56:39;;;;;;;27.67;17.25;;;12.10;99.90;;;;;;5012752;28;91765;-79
2022/10/23 04:59:10;;;;;;;24.23;16.83;;;12.10;99.90;;;;;;5012907;28;95692;-79
2022/10/23 05:01:39;;;;;;;30.30;17.90;;;12.00;99.90;;;;;;5012530;28;95590;-79
2022/10/23 05:04:08;;;;;;;29.05;18.17;;;12.10;99.90;;;;;;5011727;28;94828;-79
2022/10/23 05:06:55;;;;;;;30.02;18.35;;;12.10;99.90;;;;;;4992536;28;92488;-79
2022/10/23 05:09:40;;;;;;;28.45;18.10;;;12.00;99.90;;;;;;5013137;28;93408;-79
2022/10/23 05:12:26;;;;;;;28.58;19.02;;;12.00;99.90;;;;;;5012083;28;92496;-79
2022/10/23 05:14:53;;;;;;;34.42;18.90;;;12.00;99.90;;;;;;4996478;28;92430;-79
2022/10/23 05:17:24;;;;;;;30.15;18.75;;;12.00;99.90;;;;;;5014935;28;92593;-79
2022/10/23 05:19:56;;;;;;;30.77;20.02;;;12.00;99.90;;;;;;5016359;28;95734;-79
2022/10/23 05:22:26;;;;;;;29.88;18.67;;;12.00;99.90;;;;;;5017849;28;92606;-79
2022/10/23 05:24:53;;;;;;;29.92;19.75;;;12.00;99.90;;;;;;5016190;28;92668;-79
2022/10/23 05:27:25;;;;;;;29.05;19.90;;;12.00;99.90;;;;;;5015979;28;92520;-79
2022/10/23 05:29:53;;;;;;;35.35;21.00;;;11.90;99.90;;;;;;5014608;28;98056;-79
2022/10/23 05:32:26;;;;;;;34.67;21.05;;;11.90;99.90;;;;;;5015907;28;97973;-79
2022/10/23 05:34:53;;;;;;;29.52;19.45;;;11.90;99.90;;;;;;5015968;28;92902;-79
2022/10/23 05:37:24;;;;;;;35.22;20.98;;;11.90;99.90;;;;;;5015941;28;92841;-79
2022/10/23 05:40:01;;;;;;;32.72;20.70;;;11.90;99.90;;;;;;5015865;28;95671;-79
2022/10/23 05:42:28;;;;;;;34.90;20.27;;;11.80;99.90;;;;;;5015533;28;94932;-79
2022/10/23 05:44:56;;;;;;;35.92;21.83;;;11.80;99.90;;;;;;5016266;28;92877;-79
2022/10/23 05:47:45;;;;;;;35.13;22.40;;;11.80;99.90;;;;;;5017879;28;91700;-79
2022/10/23 05:50:39;;;;;;;34.45;21.27;;;11.80;99.90;;;;;;5002845;28;94129;-79
2022/10/23 05:53:32;;;;;;;30.85;19.88;;;11.80;99.90;;;;;;5011125;28;93770;-79
2022/10/23 05:56:12;;;;;;;31.13;19.30;;;11.70;99.90;;;;;;5014626;28;94912;-79
2022/10/23 05:58:44;;;;;;;31.58;19.55;;;11.70;99.90;;;;;;5016097;28;92472;-78
2022/10/23 06:01:30;;;;;;;30.65;19.13;;;11.80;99.90;;;;;;5015831;28;93497;-79
2022/10/23 06:04:02;;;;;;;34.83;20.80;;;11.70;99.90;;;;;;5015692;28;95382;-78
2022/10/23 06:06:52;;;;;;;29.55;18.23;;;11.70;99.90;;;;;;4996078;28;92482;-79
2022/10/23 06:09:20;;;;;;;29.80;19.67;;;11.70;99.90;;;;;;5015296;28;92516;-79
2022/10/23 06:11:48;;;;;;;33.10;19.75;;;11.70;99.90;;;;;;5015326;28;95621;-78
2022/10/23 06:14:19;;;;;;;37.33;21.90;;;11.70;99.90;;;;;;5015411;28;95217;-79
2022/10/23 06:16:48;;;;;;;32.90;20.98;;;11.70;99.90;;;;;;4999297;28;92377;-79
2022/10/23 06:19:16;;;;;;;30.98;20.63;;;11.70;99.90;;;;;;5015305;28;92493;-78
2022/10/23 06:21:43;;;;;;;36.63;20.90;;;11.80;99.90;;;;;;5013936;28;97985;-78
2022/10/23 06:24:13;;;;;;;40.25;20.52;;;11.80;99.90;;;;;;5016275;28;95932;-78
2022/10/23 06:26:45;;;;;;;33.03;20.85;;;11.80;99.90;;;;;;5014866;28;92651;-78
2022/10/23 06:29:33;;;;;;;29.70;19.63;;;11.80;99.90;;;;;;5001517;28;92587;-78
2022/10/23 06:32:00;;;;;;;29.60;19.27;;;11.80;99.90;;;;;;4998634;28;95995;-78
2022/10/23 06:34:27;;;;;;;29.17;17.88;;;11.80;99.90;;;;;;5016333;28;93121;-78
2022/10/23 06:36:54;;;;;;;35.63;20.08;;;11.90;99.90;;;;;;5015409;28;92520;-78
2022/10/23 06:39:35;;;;;;;24.27;17.63;;;11.90;99.90;;;;;;5000884;28;91655;-78
2022/10/23 06:42:09;;;;;;;28.80;17.52;;;11.90;99.90;;;;;;4999463;28;95562;-78
2022/10/23 06:44:54;;;;;;;28.55;17.88;;;11.90;99.90;;;;;;5013619;28;92870;-79
2022/10/23 06:47:56;;;;;;;21.95;15.25;;;12.00;99.90;;;;;;4980846;28;95034;-78
2022/10/23 06:50:47;;;;;;;27.10;17.45;;;12.00;99.90;;;;;;5013830;28;92482;-78
2022/10/23 06:53:19;;;;;;;30.15;18.17;;;12.10;99.90;;;;;;5015259;28;95569;-78
2022/10/23 06:55:51;;;;;;;30.13;16.60;;;12.10;99.90;;;;;;5031523;28;95616;-78
2022/10/23 06:58:20;;;;;;;28.80;18.08;;;12.20;99.90;;;;;;4997981;28;92410;-78
2022/10/23 07:01:01;;;;;;;24.17;17.27;;;12.20;99.90;;;;;;5000014;28;92849;-79
2022/10/23 07:03:28;;;;;;;25.98;16.23;;;12.30;99.90;;;;;;5014080;28;96151;-78
2022/10/23 07:06:02;;;;;;;29.33;17.48;;;12.30;99.90;;;;;;5014949;28;95750;-78
2022/10/23 07:08:29;;;;;;;24.80;16.85;;;12.40;99.90;;;;;;5014710;28;92396;-78
2022/10/23 07:10:56;;;;;;;27.55;16.38;;;12.40;99.90;;;;;;5014735;28;92535;-78
2022/10/23 07:13:23;;;;;;;22.20;16.02;;;12.40;99.90;;;;;;5013256;28;97988;-79
2022/10/23 07:16:20;;;;;;;24.58;15.32;;;12.50;99.90;;;;;;5014270;28;98190;-78
2022/10/23 07:18:57;;;;;;;18.98;13.70;;;12.60;99.90;;;;;;5014190;28;92390;-79
2022/10/23 07:21:33;;;;;;;25.13;15.35;;;12.60;99.90;;;;;;5030542;28;92493;-79
2022/10/23 07:24:23;;;;;;;24.45;15.27;;;12.60;99.90;;;;;;4994926;28;93070;-79
2022/10/23 07:26:53;;;;;;;23.30;14.18;;;12.60;99.90;;;;;;5013735;28;95222;-79
2022/10/23 07:29:22;;;;;;;16.55;12.65;;;12.70;99.90;;;;;;5015600;28;92509;-79
2022/10/23 07:31:50;;;;;;;24.42;13.63;;;12.70;99.90;;;;;;5014569;28;91766;-79
2022/10/23 07:34:30;;;;;;;20.83;12.77;;;12.80;99.90;;;;;;5011993;28;92991;-78
2022/10/23 07:37:20;;;;;;;22.48;13.52;;;12.80;99.90;;;;;;5014817;28;93911;-78
2022/10/23 07:39:47;;;;;;;22.02;13.18;;;12.80;99.90;;;;;;5012474;28;94872;-78
2022/10/23 07:42:14;;;;;;;18.77;13.73;;;12.90;99.90;;;;;;4997510;28;92420;-79
2022/10/23 07:44:41;;;;;;;19.42;13.20;;;13.00;99.90;;;;;;5013717;28;95375;-78
2022/10/23 07:47:09;;;;;;;22.63;13.80;;;13.00;99.90;;;;;;5015705;28;93253;-78
2022/10/23 07:49:38;;;;;;;24.20;14.20;;;13.00;99.90;;;;;;5013679;28;92464;-78
2022/10/23 07:52:05;;;;;;;17.52;14.07;;;13.10;99.90;;;;;;5014425;28;92773;-78
2022/10/23 07:54:52;;;;;;;18.80;12.93;;;13.20;99.90;;;;;;5013810;28;93111;-79
2022/10/23 07:57:20;;;;;;;20.35;13.10;;;13.20;99.90;;;;;;5014238;28;95691;-78
2022/10/23 07:59:54;;;;;;;15.95;13.35;;;13.30;99.90;;;;;;5014022;28;92510;-78
2022/10/23 08:02:22;;;;;;;14.98;12.60;;;13.30;99.90;;;;;;5014118;28;92455;-78
2022/10/23 08:04:49;;;;;;;16.77;12.02;;;13.40;99.90;;;;;;4996167;28;98322;-78
2022/10/23 08:07:28;;;;;;;14.82;11.10;;;13.50;99.90;;;;;;4998490;28;97774;-79
2022/10/23 08:09:56;;;;;;;14.70;10.48;;;13.50;99.90;;;;;;4997495;28;92538;-78
2022/10/23 08:12:24;;;;;;;19.40;11.10;;;13.50;99.90;;;;;;5013848;28;92526;-78
2022/10/23 08:14:53;;;;;;;18.60;11.32;;;13.50;99.90;;;;;;4997484;28;95088;-78
2022/10/23 08:17:21;;;;;;;17.83;11.18;;;13.60;99.90;;;;;;4997259;28;95285;-79
2022/10/23 08:20:03;;;;;;;22.98;11.32;;;13.70;99.90;;;;;;4999325;28;92515;-78
2022/10/23 08:22:37;;;;;;;17.73;10.85;;;13.70;99.90;;;;;;5013971;28;91761;-78
2022/10/23 08:25:05;;;;;;;19.90;12.68;;;13.80;99.90;;;;;;5013523;28;95352;-79
2022/10/23 08:27:32;;;;;;;16.52;11.73;;;13.90;99.90;;;;;;5012896;28;102200;-78
2022/10/23 08:29:59;;;;;;;16.52;11.20;;;14.00;99.90;;;;;;4996084;28;94868;-79
2022/10/23 08:32:30;;;;;;;16.40;11.82;;;14.10;99.90;;;;;;5013357;28;92513;-78
2022/10/23 08:34:58;;;;;;;14.32;11.13;;;14.20;99.90;;;;;;5013444;28;96113;-79
2022/10/23 08:37:28;;;;;;;14.77;10.35;;;14.20;99.90;;;;;;5013039;28;94988;-79
2022/10/23 08:39:55;;;;;;;16.08;10.52;;;14.30;99.90;;;;;;5013694;28;92893;-79
2022/10/23 08:42:37;;;;;;;13.65;9.63;;;14.40;99.90;;;;;;5013420;28;92901;-79
2022/10/23 08:45:25;;;;;;;14.52;9.85;;;14.50;99.90;;;;;;5013887;28;95636;-78
2022/10/23 08:48:15;;;;;;;13.43;9.20;;;14.60;99.90;;;;;;5031039;28;95133;-79
2022/10/23 08:51:20;;;;;;;11.95;8.75;;;14.60;99.90;;;;;;5015582;28;92531;-79
2022/10/23 08:54:07;;;;;;;13.85;7.93;;;14.70;99.90;;;;;;5019041;28;93456;-79
2022/10/23 08:56:36;;;;;;;16.92;8.27;;;14.90;99.90;;;;;;5017277;28;95702;-79
2022/10/23 08:59:18;;;;;;;12.68;8.95;;;14.90;99.90;;;;;;5017422;28;95151;-78
2022/10/23 09:01:48;;;;;;;14.93;8.23;;;15.00;99.90;;;;;;5018557;28;92443;-79
2022/10/23 09:04:15;;;;;;;9.18;7.47;;;15.10;99.90;;;;;;5034309;28;92480;-79
2022/10/23 09:06:54;;;;;;;10.70;7.78;;;15.10;99.90;;;;;;5018628;28;93148;-79
2022/10/23 09:10:05;;;;;;;8.32;7.53;;;15.20;99.90;;;;;;5017335;28;93170;-79
2022/10/23 09:12:32;;;;;;;9.68;7.35;;;15.40;99.90;;;;;;4989035;28;92517;-78
2022/10/23 09:15:20;;;;;;;9.68;6.47;;;15.40;99.90;;;;;;5001150;28;91975;-78
2022/10/23 09:17:52;;;;;;;10.13;7.32;;;15.40;99.90;;;;;;5018516;28;93236;-78
2022/10/23 09:20:41;;;;;;;9.82;6.97;;;15.50;99.90;;;;;;5033869;28;92847;-79
2022/10/23 09:23:23;;;;;;;8.80;6.95;;;15.60;99.90;;;;;;5015663;28;95267;-78
2022/10/23 09:25:55;;;;;;;9.18;6.63;;;15.70;99.90;;;;;;5017983;28;92524;-78
2022/10/23 09:28:24;;;;;;;14.43;7.88;;;15.70;99.90;;;;;;5018292;28;93416;-79
2022/10/23 09:30:52;;;;;;;10.05;6.90;;;15.80;99.90;;;;;;5017770;28;95806;-78
2022/10/23 09:33:24;;;;;;;10.40;7.15;;;15.90;99.90;;;;;;5018401;28;92362;-79
2022/10/23 09:35:56;;;;;;;9.55;6.72;;;15.90;99.90;;;;;;5033795;28;92460;-79
2022/10/23 09:38:26;;;;;;;9.43;6.72;;;16.00;99.90;;;;;;5016588;28;96084;-79
2022/10/23 09:40:53;;;;;;;9.57;6.15;;;16.00;99.90;;;;;;5016908;28;95502;-79
2022/10/23 09:43:24;;;;;;;7.90;6.30;;;16.00;99.90;;;;;;5017034;28;92586;-78
2022/10/23 09:46:04;;;;;;;11.15;6.88;;;16.00;99.90;;;;;;5016848;28;92505;-78
2022/10/23 09:48:33;;;;;;;9.80;6.85;;;16.00;99.90;;;;;;5015080;28;98115;-78
2022/10/23 09:51:03;;;;;;;9.75;6.85;;;16.10;99.90;;;;;;5016077;28;97732;-78
2022/10/23 09:53:35;;;;;;;10.27;7.22;;;16.20;99.90;;;;;;5017814;28;92344;-79
2022/10/23 09:56:32;;;;;;;7.28;6.25;;;16.20;99.90;;;;;;5017912;28;92539;-79
2022/10/23 09:59:17;;;;;;;11.35;6.50;;;16.40;99.90;;;;;;5016471;28;93023;-79
2022/10/23 10:01:56;;;;;;;9.45;6.00;;;16.40;99.90;;;;;;5016227;28;93090;-79
2022/10/23 10:04:49;;;;;;;11.30;6.63;;;16.50;99.90;;;;;;5016074;28;92502;-78
2022/10/23 10:07:26;;;;;;;8.30;6.75;;;16.50;99.90;;;;;;5000081;28;92432;-79
2022/10/23 10:09:56;;;;;;;9.02;6.15;;;16.60;99.90;;;;;;5016481;28;93074;-78
2022/10/23 10:12:59;;;;;;;7.97;6.10;;;16.70;99.90;;;;;;5015311;28;103555;-79
2022/10/23 10:15:34;;;;;;;11.60;7.37;;;16.90;99.90;;;;;;5009911;28;94804;-78
2022/10/23 10:18:19;;;;;;;7.50;5.53;;;16.90;99.90;;;;;;5016554;28;92509;-78
2022/10/23 10:21:00;;;;;;;8.40;6.47;;;17.10;99.90;;;;;;5017603;28;93323;-78
2022/10/23 10:23:35;;;;;;;9.75;6.40;;;17.20;99.90;;;;;;5017767;28;92890;-78
2022/10/23 10:26:06;;;;;;;7.40;5.63;;;17.30;99.90;;;;;;5032698;28;92424;-78
2022/10/23 10:29:09;;;;;;;6.68;5.50;;;17.40;99.90;;;;;;5033158;28;92716;-78
2022/10/23 10:32:04;;;;;;;6.07;5.47;;;17.50;99.90;;;;;;5016185;28;94985;-78
2022/10/23 10:34:50;;;;;;;9.73;5.82;;;17.60;99.90;;;;;;5017718;28;93036;-78
2022/10/23 10:37:23;;;;;;;10.15;6.53;;;17.60;99.90;;;;;;5017483;28;92424;-78
2022/10/23 10:40:10;;;;;;;;;;;17.70;99.90;;;;;;5016604;28;92526;-78
2022/10/23 10:42:58;;;;;;;7.88;5.55;;;17.70;99.90;;;;;;5017458;28;95655;-78
2022/10/23 10:45:26;;;;;;;6.05;5.47;;;17.70;99.90;;;;;;5032829;28;98057;-78
2022/10/23 10:48:11;;;;;;;7.18;4.93;;;17.80;99.90;;;;;;5015734;28;92490;-78
2022/10/23 10:51:01;;;;;;;7.90;4.80;;;18.00;99.90;;;;;;5016280;28;92582;-78
2022/10/23 10:54:02;;;;;;;6.00;5.22;;;18.00;99.90;;;;;;5032598;28;95792;-78
2022/10/23 10:56:32;;;;;;;8.20;4.95;;;18.10;99.90;;;;;;5016965;28;93171;-78
2022/10/23 10:59:04;;;;;;;6.93;5.03;;;18.10;99.90;;;;;;5017294;28;92400;-78
2022/10/23 11:01:41;;;;;;;7.57;5.05;;;18.20;99.90;;;;;;5017603;28;91857;-78
2022/10/23 11:04:38;;;;;;;5.88;4.88;;;18.30;99.90;;;;;;5016896;28;92499;-78
2022/10/23 11:07:20;;;;;;;6.10;5.40;;;18.40;99.90;;;;;;5017173;28;92957;-78
2022/10/23 11:09:47;;;;;;;8.13;5.00;;;18.40;99.90;;;;;;5015928;28;94921;-78
2022/10/23 11:12:21;;;;;;;8.38;4.97;;;18.40;99.90;;;;;;5017056;28;92422;-78
2022/10/23 11:14:49;;;;;;;7.32;4.80;;;18.40;99.90;;;;;;5016205;28;93272;-78
2022/10/23 11:17:38;;;;;;;12.40;5.30;;;18.40;99.90;;;;;;5015848;28;96167;-78
2022/10/23 11:20:08;;;;;;;6.88;4.43;;;18.50;99.90;;;;;;5015469;28;92527;-78
2022/10/23 11:22:59;;;;;;;7.28;4.43;;;18.50;99.90;;;;;;5016986;28;92400;-78
2022/10/23 11:25:50;;;;;;;6.80;4.70;;;18.50;99.90;;;;;;5031603;28;97918;-78
2022/10/23 11:28:47;;;;;;;5.55;4.07;;;18.50;99.90;;;;;;5017331;28;93000;-78
2022/10/23 11:32:03;;;;;;;7.32;5.07;;;18.60;99.90;;;;;;5015526;28;92549;-78
2022/10/23 11:34:57;;;;;;;8.88;4.05;;;18.60;99.90;;;;;;5011906;28;93156;-78
2022/10/23 11:37:25;;;;;;;7.97;4.15;;;18.50;99.90;;;;;;5014262;28;95676;-78
2022/10/23 11:40:21;;;;;;;4.38;3.92;;;18.40;99.90;;;;;;5015040;28;97889;-78
2022/10/23 11:42:49;;;;;;;6.55;4.35;;;18.40;99.90;;;;;;5016998;28;92348;-78
2022/10/23 11:45:36;;;;;;;6.45;4.10;;;18.40;99.90;;;;;;5016188;28;92459;-78
2022/10/23 11:48:13;;;;;;;6.70;4.50;;;18.50;99.90;;;;;;5014617;28;95978;-78
2022/10/23 11:50:43;;;;;;;6.97;3.75;;;18.40;99.90;;;;;;5015256;28;93075;-78
2022/10/23 11:53:30;;;;;;;8.75;4.38;;;18.40;99.90;;;;;;5016143;28;92481;-78
2022/10/23 11:56:04;;;;;;;7.47;4.07;;;18.50;99.90;;;;;;5009014;28;91693;-78
2022/10/23 11:58:48;;;;;;;6.82;4.78;;;18.40;99.90;;;;;;5015101;28;93085;-78
2022/10/23 12:01:40;;;;;;;6.85;4.78;;;18.50;99.90;;;;;;5014417;28;95484;-78
2022/10/23 12:04:13;;;;;;;8.23;4.15;;;18.50;99.90;;;;;;5013431;28;94947;-78
2022/10/23 12:06:54;;;;;;;8.55;4.50;;;18.50;99.90;;;;;;5016214;28;92445;-78
2022/10/23 12:09:40;;;;;;;6.63;4.30;;;18.60;99.90;;;;;;5014827;28;95891;-78
2022/10/23 12:12:07;;;;;;;5.38;4.45;;;18.60;99.90;;;;;;5015624;28;92986;-78
2022/10/23 12:14:44;;;;;;;5.43;3.90;;;18.60;99.90;;;;;;5016148;28;92464;-78
2022/10/23 12:17:29;;;;;;;5.95;3.90;;;18.70;99.90;;;;;;5016032;28;92496;-78
2022/10/23 12:20:21;;;;;;;9.77;4.22;;;18.70;99.90;;;;;;5016127;28;93431;-78
2022/10/23 12:23:00;;;;;;;6.00;4.22;;;18.70;99.90;;;;;;5014967;28;95644;-78
2022/10/23 12:26:01;;;;;;;5.95;4.63;;;18.70;99.90;;;;;;5018279;28;92423;-78
2022/10/23 12:28:43;;;;;;;5.40;3.65;;;18.80;99.90;;;;;;5022653;28;92359;-78
2022/10/23 12:31:31;;;;;;;7.13;3.97;;;18.80;99.90;;;;;;5021127;28;95414;-79
2022/10/23 12:34:13;;;;;;;8.75;4.93;;;18.80;99.90;;;;;;5020732;28;96565;-78
2022/10/23 12:36:55;;;;;;;5.75;4.47;;;18.80;99.90;;;;;;5038132;28;92439;-78
2022/10/23 12:39:36;;;;;;;7.82;4.28;;;18.80;99.90;;;;;;5037881;28;92494;-78
2022/10/23 12:42:05;;;;;;;6.55;3.88;;;18.80;99.90;;;;;;5022200;28;93622;-78
2022/10/23 12:44:32;;;;;;;7.20;4.25;;;18.80;99.90;;;;;;5021116;28;109232;-78
2022/10/23 12:47:01;;;;;;;5.57;3.53;;;18.90;99.90;;;;;;5037740;28;92444;-78
2022/10/23 12:49:32;;;;;;;7.40;3.53;;;18.80;99.90;;;;;;5022488;28;91708;-78
2022/10/23 12:52:03;;;;;;;8.02;4.10;;;18.90;99.90;;;;;;5029494;28;93185;-78
2022/10/23 12:54:31;;;;;;;7.00;5.13;;;18.90;99.90;;;;;;5045712;27;93035;-78
2022/10/23 12:56:58;;;;;;;8.30;3.95;;;18.90;99.90;;;;;;5021348;28;94836;-78
2022/10/23 12:59:34;;;;;;;7.18;3.97;;;19.00;99.90;;;;;;5004183;28;92407;-78
2022/10/23 13:02:12;;;;;;;6.22;4.00;;;19.10;99.90;;;;;;5037894;28;92424;-78
2022/10/23 13:04:39;;;;;;;8.57;5.00;;;19.10;99.90;;;;;;5022244;28;93106;-78
2022/10/23 13:07:06;;;;;;;8.30;4.28;;;19.10;99.90;;;;;;5022209;28;92415;-78
2022/10/23 13:09:38;;;;;;;6.20;4.07;;;19.00;99.90;;;;;;5004167;28;93453;-79
2022/10/23 13:12:24;;;;;;;7.57;3.90;;;19.00;99.90;;;;;;5020656;28;95671;-78
2022/10/23 13:14:59;;;;;;;13.73;7.72;;;19.00;99.90;;;;;;5020942;28;94176;-78